Back to Top

Language: 

My Weather Underground Personal Weather Station Historical Data with Graphs...

Delerius Weather Station Historical Data
Daily Summary for July 25, 2017 Units:  English    Metric   Both
« Previous Day
Next Day »
Daily Weekly Monthly Yearly Custom
  High: Low: Average:
Temperature: 71.6 °F 52.3 °F 61.7 °F
Dew Point: 58.1 °F 50.0 °F 54.4 °F
Humidity: 94 % 61 % 78 %
Wind Speed: 7.0 mph 0.0 mph 2.3 mph
Wind Gust: 13.0 mph - -
Wind:- - SSW
Pressure: 30.07 in 29.87 in -
Precipitation: 0.00 in    
Historical Graphs
 
 
Tabular Data for July 25, 2017
Time Temperature Dew Point Pressure Wind Wind Speed Wind Gust Humidity Rainfall Rate (Hourly) solar Conditions
00:00 55.4 °F 51.6 °F 30.06 in NNW 1.0 mph 5.0 mph 87 % 0.00 in 0 W/m2
00:05 55.0 °F 51.2 °F 30.06 in Calm   2.0 mph 87 % 0.00 in 0 W/m2
00:10 54.9 °F 51.1 °F 30.06 in Calm     87 % 0.00 in 0 W/m2
00:15 54.5 °F 51.0 °F 30.06 in Calm   2.0 mph 88 % 0.00 in 0 W/m2
00:20 54.3 °F 50.8 °F 30.07 in Calm   2.0 mph 88 % 0.00 in 0 W/m2
00:25 54.1 °F 51.0 °F 30.07 in Calm   1.0 mph 89 % 0.00 in 0 W/m2
00:30 54.0 °F 50.8 °F 30.07 in Calm     89 % 0.00 in 0 W/m2
00:35 53.8 °F 50.9 °F 30.07 in Calm     90 % 0.00 in 0 W/m2
00:38 53.6 °F 50.7 °F 30.06 in Calm     90 % 0.00 in 0 W/m2
00:43 53.4 °F 50.6 °F 30.06 in Calm     90 % 0.00 in 0 W/m2
00:48 53.2 °F 50.4 °F 30.06 in Calm     90 % 0.00 in 0 W/m2
00:53 52.9 °F 50.0 °F 30.06 in Calm   1.0 mph 90 % 0.00 in 0 W/m2
00:58 52.9 °F 50.3 °F 30.06 in Calm   4.0 mph 91 % 0.00 in 0 W/m2
01:03 52.7 °F 50.1 °F 30.06 in Calm   4.0 mph 91 % 0.00 in 0 W/m2
01:08 52.7 °F 50.1 °F 30.06 in Calm     91 % 0.00 in 0 W/m2
01:18 52.5 °F 50.3 °F 30.07 in NNW 1.0 mph 6.0 mph 92 % 0.00 in 0 W/m2
01:23 52.9 °F 50.6 °F 30.07 in NNW 1.0 mph 6.0 mph 92 % 0.00 in 0 W/m2
01:28 52.9 °F 50.6 °F 30.07 in NNW 1.0 mph 5.0 mph 92 % 0.00 in 0 W/m2
01:33 52.5 °F 50.3 °F 30.06 in Calm   4.0 mph 92 % 0.00 in 0 W/m2
01:38 52.3 °F 50.1 °F 30.06 in Calm     92 % 0.00 in 0 W/m2
01:43 52.3 °F 50.1 °F 30.07 in Calm     92 % 0.00 in 0 W/m2
01:48 52.3 °F 50.1 °F 30.07 in Calm   2.0 mph 92 % 0.00 in 0 W/m2
01:53 52.3 °F 50.1 °F 30.07 in WNW 1.0 mph 4.0 mph 92 % 0.00 in 0 W/m2
01:58 52.5 °F 50.6 °F 30.07 in NW 2.0 mph 6.0 mph 93 % 0.00 in 0 W/m2
02:03 52.9 °F 50.9 °F 30.07 in NW 3.0 mph 7.0 mph 93 % 0.00 in 0 W/m2
02:08 53.1 °F 51.4 °F 30.06 in NW 1.0 mph 7.0 mph 94 % 0.00 in 0 W/m2
02:13 53.2 °F 51.3 °F 30.06 in Calm   4.0 mph 93 % 0.00 in 0 W/m2
02:18 53.4 °F 51.4 °F 30.06 in Calm   4.0 mph 93 % 0.00 in 0 W/m2
02:28 53.8 °F 51.8 °F 30.06 in NW 2.0 mph 9.0 mph 93 % 0.00 in 0 W/m2
02:33 54.0 °F 51.7 °F 30.06 in NNW 4.0 mph 11.0 mph 92 % 0.00 in 0 W/m2
02:38 54.0 °F 51.7 °F 30.06 in NNW 4.0 mph 11.0 mph 92 % 0.00 in 0 W/m2
02:43 54.1 °F 51.6 °F 30.06 in NNE 3.0 mph 8.0 mph 91 % 0.00 in 0 W/m2
02:48 54.1 °F 51.6 °F 30.06 in North 5.0 mph 13.0 mph 91 % 0.00 in 0 W/m2
02:53 54.3 °F 51.4 °F 30.06 in North 7.0 mph 13.0 mph 90 % 0.00 in 0 W/m2
02:58 54.3 °F 51.4 °F 30.06 in North 6.0 mph 12.0 mph 90 % 0.00 in 0 W/m2
03:03 54.3 °F 51.4 °F 30.06 in NNW 3.0 mph 10.0 mph 90 % 0.00 in 0 W/m2
03:08 54.5 °F 51.6 °F 30.05 in NNW 3.0 mph 10.0 mph 90 % 0.00 in 0 W/m2
03:13 54.5 °F 51.6 °F 30.05 in NW 4.0 mph 7.0 mph 90 % 0.00 in 0 W/m2
03:19 54.5 °F 51.6 °F 30.05 in NW 2.0 mph 7.0 mph 90 % 0.00 in 0 W/m2
03:23 54.5 °F 51.6 °F 30.05 in Calm   5.0 mph 90 % 0.00 in 0 W/m2
03:29 54.7 °F 51.5 °F 30.05 in Calm   2.0 mph 89 % 0.00 in 0 W/m2
03:34 54.7 °F 51.5 °F 30.06 in Calm   2.0 mph 89 % 0.00 in 0 W/m2
03:39 54.7 °F 51.5 °F 30.05 in Calm   4.0 mph 89 % 0.00 in 0 W/m2
03:44 54.7 °F 51.5 °F 30.05 in NNW 1.0 mph 6.0 mph 89 % 0.00 in 0 W/m2
03:49 54.7 °F 51.5 °F 30.05 in NNW 3.0 mph 10.0 mph 89 % 0.00 in 0 W/m2
03:54 54.5 °F 51.3 °F 30.05 in NNW 5.0 mph 10.0 mph 89 % 0.00 in 0 W/m2
03:59 54.5 °F 51.3 °F 30.05 in NNW 4.0 mph 10.0 mph 89 % 0.00 in 0 W/m2
04:04 54.5 °F 51.3 °F 30.05 in NNW 2.0 mph 8.0 mph 89 % 0.00 in 0 W/m2
04:09 54.5 °F 51.3 °F 30.05 in NW 2.0 mph 6.0 mph 89 % 0.00 in 0 W/m2
04:14 54.5 °F 51.3 °F 30.05 in WNW 1.0 mph 6.0 mph 89 % 0.00 in 0 W/m2
04:19 54.5 °F 51.3 °F 30.05 in WNW 1.0 mph 4.0 mph 89 % 0.00 in 0 W/m2
04:24 54.5 °F 51.0 °F 30.05 in NW 1.0 mph 6.0 mph 88 % 0.00 in 0 W/m2
04:29 54.5 °F 51.3 °F 30.05 in NNW 1.0 mph 6.0 mph 89 % 0.00 in 0 W/m2
04:34 54.5 °F 51.3 °F 30.05 in NW 2.0 mph 6.0 mph 89 % 0.00 in 0 W/m2
04:39 54.5 °F 51.3 °F 30.05 in NW 2.0 mph 6.0 mph 89 % 0.00 in 0 W/m2
04:44 54.7 °F 51.2 °F 30.05 in NNW 2.0 mph 8.0 mph 88 % 0.00 in 0 W/m2
04:49 54.5 °F 51.0 °F 30.05 in NNW 3.0 mph 8.0 mph 88 % 0.00 in 0 W/m2
04:54 54.7 °F 51.2 °F 30.05 in NNW 2.0 mph 8.0 mph 88 % 0.00 in 0 W/m2
04:59 54.7 °F 51.2 °F 30.05 in North 1.0 mph 4.0 mph 88 % 0.00 in 0 W/m2
05:04 54.7 °F 51.2 °F 30.05 in North 1.0 mph 6.0 mph 88 % 0.00 in 0 W/m2
05:09 54.7 °F 51.2 °F 30.05 in North 2.0 mph 6.0 mph 88 % 0.00 in 0 W/m2
05:14 54.7 °F 51.2 °F 30.05 in North 2.0 mph 6.0 mph 88 % 0.00 in 0 W/m2
05:19 54.7 °F 51.5 °F 30.05 in NW 2.0 mph 5.0 mph 89 % 0.00 in 5 W/m2
05:24 54.7 °F 51.2 °F 30.04 in WNW 2.0 mph 5.0 mph 88 % 0.00 in 5 W/m2
05:29 54.7 °F 51.5 °F 30.04 in West 1.0 mph 5.0 mph 89 % 0.00 in 7 W/m2
05:34 54.7 °F 51.5 °F 30.04 in West 1.0 mph 5.0 mph 89 % 0.00 in 11 W/m2
05:39 54.7 °F 51.5 °F 30.04 in West 1.0 mph 5.0 mph 89 % 0.00 in 14 W/m2
05:44 54.7 °F 51.5 °F 30.04 in West 1.0 mph 5.0 mph 89 % 0.00 in 19 W/m2
05:49 54.7 °F 51.5 °F 30.04 in West 1.0 mph 5.0 mph 89 % 0.00 in 19 W/m2
05:54 54.7 °F 51.5 °F 30.04 in West 1.0 mph 5.0 mph 89 % 0.00 in 16 W/m2
05:59 54.9 °F 51.7 °F 30.04 in Calm   3.0 mph 89 % 0.00 in 12 W/m2
06:04 54.9 °F 51.7 °F 30.05 in Calm   3.0 mph 89 % 0.00 in 14 W/m2
06:09 54.9 °F 51.7 °F 30.04 in West 1.0 mph 3.0 mph 89 % 0.00 in 16 W/m2
06:14 54.9 °F 51.7 °F 30.04 in West 1.0 mph 4.0 mph 89 % 0.00 in 26 W/m2
06:19 54.9 °F 51.7 °F 30.04 in West 1.0 mph 4.0 mph 89 % 0.00 in 40 W/m2
06:24 55.0 °F 51.9 °F 30.04 in Calm   3.0 mph 89 % 0.00 in 44 W/m2
06:29 55.0 °F 51.5 °F 30.04 in West 1.0 mph 5.0 mph 88 % 0.00 in 46 W/m2
06:34 55.0 °F 51.5 °F 30.04 in West 2.0 mph 5.0 mph 88 % 0.00 in 58 W/m2
06:39 55.2 °F 51.7 °F 30.04 in West 2.0 mph 4.0 mph 88 % 0.00 in 54 W/m2
06:44 55.2 °F 51.7 °F 30.04 in West 2.0 mph 5.0 mph 88 % 0.00 in 42 W/m2
06:49 55.4 °F 51.9 °F 30.04 in West 2.0 mph 5.0 mph 88 % 0.00 in 42 W/m2
06:54 55.4 °F 51.9 °F 30.04 in West 1.0 mph 5.0 mph 88 % 0.00 in 42 W/m2
06:59 55.6 °F 52.1 °F 30.04 in WNW 1.0 mph 5.0 mph 88 % 0.00 in 42 W/m2
07:04 55.6 °F 51.8 °F 30.04 in WNW 2.0 mph 6.0 mph 87 % 0.00 in 49 W/m2
07:09 55.6 °F 51.8 °F 30.04 in WNW 1.0 mph 6.0 mph 87 % 0.00 in 42 W/m2
07:14 55.8 °F 51.9 °F 30.04 in WNW 1.0 mph 4.0 mph 87 % 0.00 in 42 W/m2
07:19 55.8 °F 51.9 °F 30.04 in WNW 1.0 mph 6.0 mph 87 % 0.00 in 46 W/m2
07:24 55.8 °F 51.9 °F 30.04 in WNW 2.0 mph 6.0 mph 87 % 0.00 in 51 W/m2
07:29 55.8 °F 51.9 °F 30.04 in WNW 2.0 mph 6.0 mph 87 % 0.00 in 60 W/m2
07:34 55.8 °F 51.9 °F 30.03 in WNW 3.0 mph 6.0 mph 87 % 0.00 in 65 W/m2
07:39 55.8 °F 51.6 °F 30.03 in WNW 3.0 mph 6.0 mph 86 % 0.00 in 84 W/m2
07:44 55.9 °F 52.1 °F 30.03 in WNW 2.0 mph 5.0 mph 87 % 0.00 in 109 W/m2
07:49 55.9 °F 51.8 °F 30.03 in WNW 2.0 mph 5.0 mph 86 % 0.00 in 107 W/m2
07:54 56.1 °F 52.3 °F 30.04 in WNW 2.0 mph 5.0 mph 87 % 0.00 in 109 W/m2
07:59 56.3 °F 52.2 °F 30.03 in WNW 2.0 mph 5.0 mph 86 % 0.00 in 139 W/m2
08:04 56.5 °F 52.3 °F 30.03 in WNW 2.0 mph 5.0 mph 86 % 0.00 in 123 W/m2
08:09 56.7 °F 52.5 °F 30.03 in NW 2.0 mph 5.0 mph 86 % 0.00 in 144 W/m2
08:14 56.8 °F 52.4 °F 30.04 in NW 2.0 mph 6.0 mph 85 % 0.00 in 116 W/m2
08:19 57.0 °F 52.6 °F 30.03 in NW 2.0 mph 6.0 mph 85 % 0.00 in 113 W/m2
08:24 57.2 °F 52.7 °F 30.04 in NNW 2.0 mph 7.0 mph 85 % 0.00 in 111 W/m2
08:29 57.4 °F 52.6 °F 30.03 in NNW 3.0 mph 8.0 mph 84 % 0.00 in 121 W/m2
08:34 57.4 °F 52.6 °F 30.04 in NW 3.0 mph 8.0 mph 84 % 0.00 in 116 W/m2
08:40 57.4 °F 52.6 °F 30.03 in NW 4.0 mph 8.0 mph 84 % 0.00 in 144 W/m2
08:45 57.6 °F 52.8 °F 30.03 in NW 4.0 mph 8.0 mph 84 % 0.00 in 149 W/m2
08:50 57.6 °F 52.8 °F 30.03 in NW 4.0 mph 8.0 mph 84 % 0.00 in 142 W/m2
08:55 57.7 °F 52.9 °F 30.03 in NW 3.0 mph 9.0 mph 84 % 0.00 in 167 W/m2
09:00 57.9 °F 52.8 °F 30.03 in NW 3.0 mph 9.0 mph 83 % 0.00 in 163 W/m2
09:05 58.1 °F 53.0 °F 30.03 in NW 4.0 mph 8.0 mph 83 % 0.00 in 171 W/m2
09:10 58.3 °F 53.1 °F 30.03 in NNW 4.0 mph 9.0 mph 83 % 0.00 in 169 W/m2
09:15 58.3 °F 52.8 °F 30.03 in North 4.0 mph 9.0 mph 82 % 0.00 in 185 W/m2
09:20 58.3 °F 52.8 °F 30.03 in North 5.0 mph 9.0 mph 82 % 0.00 in 229 W/m2
09:25 58.5 °F 53.0 °F 30.03 in North 4.0 mph 10.0 mph 82 % 0.00 in 209 W/m2
09:30 58.5 °F 53.0 °F 30.03 in North 4.0 mph 10.0 mph 82 % 0.00 in 246 W/m2
09:35 58.6 °F 53.2 °F 30.03 in North 4.0 mph 9.0 mph 82 % 0.00 in 243 W/m2
09:40 58.8 °F 53.3 °F 30.03 in North 3.0 mph 8.0 mph 82 % 0.00 in 211 W/m2
09:45 59.0 °F 53.2 °F 30.02 in North 4.0 mph 9.0 mph 81 % 0.00 in 202 W/m2
09:50 59.0 °F 52.8 °F 30.02 in NE 3.0 mph 9.0 mph 80 % 0.00 in 229 W/m2
09:55 59.2 °F 53.4 °F 30.02 in NE 3.0 mph 9.0 mph 81 % 0.00 in 251 W/m2
10:00 59.2 °F 53.0 °F 30.02 in NNE 4.0 mph 9.0 mph 80 % 0.00 in 227 W/m2
10:05 59.2 °F 53.0 °F 30.02 in North 2.0 mph 7.0 mph 80 % 0.00 in 260 W/m2
10:10 59.4 °F 53.2 °F 30.02 in NNW 2.0 mph 6.0 mph 80 % 0.00 in 234 W/m2
10:15 59.5 °F 53.4 °F 30.02 in NNW 3.0 mph 6.0 mph 80 % 0.00 in 232 W/m2
10:20 59.5 °F 53.0 °F 30.02 in North 3.0 mph 8.0 mph 79 % 0.00 in 204 W/m2
10:25 59.5 °F 53.0 °F 30.02 in NNE 3.0 mph 8.0 mph 79 % 0.00 in 206 W/m2
10:30 59.5 °F 53.0 °F 30.02 in NNE 2.0 mph 7.0 mph 79 % 0.00 in 237 W/m2
10:35 59.7 °F 53.2 °F 30.02 in North 3.0 mph 7.0 mph 79 % 0.00 in 264 W/m2
10:40 60.1 °F 53.5 °F 30.02 in NNW 2.0 mph 7.0 mph 79 % 0.00 in 309 W/m2
10:45 60.3 °F 53.4 °F 30.02 in NNW 1.0 mph 5.0 mph 78 % 0.00 in 452 W/m2
10:50 60.6 °F 54.1 °F 30.01 in North 1.0 mph 4.0 mph 79 % 0.00 in 561 W/m2
10:55 61.3 °F 53.7 °F 30.01 in North 2.0 mph 7.0 mph 76 % 0.00 in 406 W/m2
11:00 61.9 °F 54.2 °F 30.01 in NNW 2.0 mph 7.0 mph 76 % 0.00 in 357 W/m2
11:05 62.1 °F 54.0 °F 30.01 in NW 3.0 mph 8.0 mph 75 % 0.00 in 385 W/m2
11:10 62.1 °F 54.0 °F 30.01 in WNW 4.0 mph 8.0 mph 75 % 0.00 in 410 W/m2
11:15 62.4 °F 54.4 °F 30.01 in NNW 4.0 mph 7.0 mph 75 % 0.00 in 396 W/m2
11:20 62.8 °F 54.4 °F 30.01 in NNW 4.0 mph 8.0 mph 74 % 0.00 in 320 W/m2
11:25 63.0 °F 54.2 °F 30.01 in NW 2.0 mph 8.0 mph 73 % 0.00 in 288 W/m2
11:26 63.0 °F 54.2 °F 30.01 in NW 2.0 mph 8.0 mph 73 % 0.00 in 294 W/m2
11:31 63.1 °F 54.3 °F 30.01 in Calm   2.0 mph 73 % 0.00 in 371 W/m2
11:36 63.1 °F 54.3 °F 30.00 in Calm   5.0 mph 73 % 0.00 in 432 W/m2
11:41 63.3 °F 54.1 °F 30.00 in ENE 1.0 mph 5.0 mph 72 % 0.00 in 411 W/m2
11:46 63.7 °F 54.5 °F 30.00 in NE 1.0 mph 5.0 mph 72 % 0.00 in 318 W/m2
11:51 63.7 °F 54.1 °F 30.00 in ENE 1.0 mph 5.0 mph 71 % 0.00 in 325 W/m2
11:56 63.9 °F 54.7 °F 30.00 in ESE 1.0 mph 4.0 mph 72 % 0.00 in 462 W/m2
12:01 63.9 °F 54.7 °F 30.00 in NE 2.0 mph 8.0 mph 72 % 0.00 in 594 W/m2
12:06 63.9 °F 54.7 °F 30.00 in NNE 2.0 mph 8.0 mph 72 % 0.00 in 404 W/m2
12:11 64.0 °F 54.8 °F 30.00 in NNE 1.0 mph 5.0 mph 72 % 0.00 in 401 W/m2
12:16 64.2 °F 54.6 °F 30.00 in NNE 1.0 mph 5.0 mph 71 % 0.00 in 422 W/m2
12:22 64.4 °F 54.4 °F 30.00 in NNE 2.0 mph 6.0 mph 70 % 0.00 in 404 W/m2
12:26 64.6 °F 54.6 °F 30.00 in North 2.0 mph 6.0 mph 70 % 0.00 in 443 W/m2
12:31 64.9 °F 55.3 °F 29.99 in NNW 1.0 mph 4.0 mph 71 % 0.00 in 387 W/m2
12:37 65.1 °F 55.1 °F 29.99 in WNW 2.0 mph 7.0 mph 70 % 0.00 in 448 W/m2
12:42 65.3 °F 55.3 °F 29.99 in WNW 3.0 mph 8.0 mph 70 % 0.00 in 415 W/m2
12:47 65.5 °F 55.0 °F 29.99 in WNW 4.0 mph 8.0 mph 69 % 0.00 in 457 W/m2
12:52 65.7 °F 55.2 °F 29.99 in NW 3.0 mph 7.0 mph 69 % 0.00 in 415 W/m2
12:57 65.3 °F 54.9 °F 29.99 in North 4.0 mph 8.0 mph 69 % 0.00 in 373 W/m2
13:02 65.1 °F 54.7 °F 29.99 in North 3.0 mph 8.0 mph 69 % 0.00 in 543 W/m2
13:07 65.5 °F 55.4 °F 29.99 in NNE 2.0 mph 8.0 mph 70 % 0.00 in 438 W/m2
13:12 65.7 °F 55.2 °F 29.99 in North 5.0 mph 10.0 mph 69 % 0.00 in 394 W/m2
13:17 65.7 °F 54.8 °F 29.99 in North 4.0 mph 10.0 mph 68 % 0.00 in 408 W/m2
13:22 66.0 °F 55.6 °F 29.99 in NNW 3.0 mph 8.0 mph 69 % 0.00 in 425 W/m2
13:27 66.4 °F 55.5 °F 29.99 in NNW 3.0 mph 8.0 mph 68 % 0.00 in 513 W/m2
13:32 66.6 °F 55.3 °F 29.99 in North 2.0 mph 7.0 mph 67 % 0.00 in 483 W/m2
13:37 66.9 °F 56.0 °F 29.98 in NNW 3.0 mph 10.0 mph 68 % 0.00 in 360 W/m2
13:42 67.3 °F 56.4 °F 29.98 in NNW 3.0 mph 10.0 mph 68 % 0.00 in 441 W/m2
13:47 67.3 °F 55.9 °F 29.98 in NW 3.0 mph 10.0 mph 67 % 0.00 in 652 W/m2
13:52 67.5 °F 55.7 °F 29.98 in NW 3.0 mph 10.0 mph 66 % 0.00 in 403 W/m2
13:57 67.5 °F 55.7 °F 29.98 in NNW 1.0 mph 4.0 mph 66 % 0.00 in 374 W/m2
14:02 67.5 °F 55.7 °F 29.98 in Calm   4.0 mph 66 % 0.00 in 461 W/m2
14:07 67.8 °F 56.5 °F 29.97 in WNW 1.0 mph 7.0 mph 67 % 0.00 in 656 W/m2
14:12 68.4 °F 56.6 °F 29.97 in WNW 2.0 mph 7.0 mph 66 % 0.00 in 487 W/m2
14:17 68.5 °F 56.3 °F 29.97 in West 2.0 mph 7.0 mph 65 % 0.00 in 461 W/m2
14:22 68.7 °F 56.9 °F 29.97 in West 1.0 mph 6.0 mph 66 % 0.00 in 425 W/m2
14:27 68.9 °F 56.6 °F 29.97 in West 1.0 mph 6.0 mph 65 % 0.00 in 494 W/m2
14:32 68.7 °F 56.5 °F 29.97 in West 1.0 mph 4.0 mph 65 % 0.00 in 401 W/m2
14:37 68.7 °F 56.9 °F 29.97 in NE 2.0 mph 7.0 mph 66 % 0.00 in 436 W/m2
14:42 68.5 °F 56.3 °F 29.96 in ENE 3.0 mph 8.0 mph 65 % 0.00 in 466 W/m2
14:47 68.5 °F 56.7 °F 29.96 in ENE 2.0 mph 8.0 mph 66 % 0.00 in 965 W/m2
14:52 68.5 °F 57.1 °F 29.96 in North 2.0 mph 6.0 mph 67 % 0.00 in 990 W/m2
14:57 69.1 °F 57.2 °F 29.96 in NNW 3.0 mph 8.0 mph 66 % 0.00 in 396 W/m2
15:02 69.4 °F 57.2 °F 29.95 in NW 3.0 mph 8.0 mph 65 % 0.00 in 418 W/m2
15:07 69.6 °F 56.9 °F 29.95 in NW 3.0 mph 8.0 mph 64 % 0.00 in 817 W/m2
15:12 69.4 °F 56.7 °F 29.95 in WSW 4.0 mph 9.0 mph 64 % 0.00 in 970 W/m2
15:17 69.4 °F 57.6 °F 29.95 in SW 4.0 mph 9.0 mph 66 % 0.00 in 835 W/m2
15:22 70.2 °F 57.4 °F 29.95 in SSW 2.0 mph 5.0 mph 64 % 0.00 in 687 W/m2
15:27 70.3 °F 57.1 °F 29.95 in SSW 2.0 mph 5.0 mph 63 % 0.00 in 369 W/m2
15:32 70.2 °F 57.0 °F 29.95 in NW 2.0 mph 6.0 mph 63 % 0.00 in 350 W/m2
15:37 70.3 °F 57.6 °F 29.95 in NNW 2.0 mph 7.0 mph 64 % 0.00 in 264 W/m2
15:43 70.3 °F 57.6 °F 29.94 in NW 2.0 mph 7.0 mph 64 % 0.00 in 833 W/m2
15:48 70.9 °F 57.7 °F 29.94 in NNW 2.0 mph 5.0 mph 63 % 0.00 in 197 W/m2
15:53 71.1 °F 57.8 °F 29.94 in NNW 3.0 mph 8.0 mph 63 % 0.00 in 744 W/m2
15:54 71.1 °F 57.8 °F 29.94 in NNW 3.0 mph 8.0 mph 63 % 0.00 in 751 W/m2
15:59 71.2 °F 57.1 °F 29.94 in NNW 3.0 mph 8.0 mph 61 % 0.00 in 721 W/m2
16:04 71.4 °F 57.3 °F 29.94 in North 2.0 mph 9.0 mph 61 % 0.00 in 735 W/m2
16:09 71.4 °F 57.3 °F 29.94 in North 3.0 mph 9.0 mph 61 % 0.00 in 726 W/m2
16:14 71.4 °F 57.3 °F 29.94 in North 3.0 mph 8.0 mph 61 % 0.00 in 264 W/m2
16:19 71.2 °F 57.5 °F 29.94 in NNW 2.0 mph 6.0 mph 62 % 0.00 in 255 W/m2
16:24 71.1 °F 57.4 °F 29.94 in NW 2.0 mph 6.0 mph 62 % 0.00 in 239 W/m2
16:25 71.1 °F 57.4 °F 29.94 in NW 1.0 mph 6.0 mph 62 % 0.00 in 255 W/m2
16:30 71.1 °F 57.4 °F 29.94 in NW 1.0 mph 6.0 mph 62 % 0.00 in 417 W/m2
16:35 71.4 °F 57.7 °F 29.93 in North 1.0 mph 6.0 mph 62 % 0.00 in 698 W/m2
16:40 71.6 °F 57.9 °F 29.94 in NNE 2.0 mph 6.0 mph 62 % 0.00 in 302 W/m2
16:45 71.4 °F 57.3 °F 29.94 in NE 2.0 mph 7.0 mph 61 % 0.00 in 223 W/m2
16:50 71.2 °F 57.1 °F 29.94 in NE 3.0 mph 7.0 mph 61 % 0.00 in 290 W/m2
16:55 71.1 °F 57.4 °F 29.94 in NE 2.0 mph 6.0 mph 62 % 0.00 in 357 W/m2
17:00 71.1 °F 57.4 °F 29.93 in NE 3.0 mph 8.0 mph 62 % 0.00 in 269 W/m2
17:05 70.7 °F 57.5 °F 29.93 in NE 3.0 mph 8.0 mph 63 % 0.00 in 573 W/m2
17:10 70.9 °F 57.2 °F 29.93 in ENE 2.0 mph 7.0 mph 62 % 0.00 in 570 W/m2
17:15 70.9 °F 57.2 °F 29.93 in East 2.0 mph 6.0 mph 62 % 0.00 in 230 W/m2
17:20 70.7 °F 57.5 °F 29.93 in ESE 2.0 mph 6.0 mph 63 % 0.00 in 554 W/m2
17:25 70.7 °F 57.5 °F 29.92 in ENE 3.0 mph 7.0 mph 63 % 0.00 in 450 W/m2
17:30 70.9 °F 58.1 °F 29.92 in ENE 4.0 mph 7.0 mph 64 % 0.00 in 552 W/m2
17:35 70.9 °F 57.7 °F 29.92 in NE 5.0 mph 8.0 mph 63 % 0.00 in 153 W/m2
17:40 70.5 °F 57.8 °F 29.92 in NE 4.0 mph 8.0 mph 64 % 0.00 in 199 W/m2
17:45 70.3 °F 57.6 °F 29.92 in NE 3.0 mph 6.0 mph 64 % 0.00 in 255 W/m2
17:50 70.5 °F 57.8 °F 29.91 in NE 3.0 mph 6.0 mph 64 % 0.00 in 380 W/m2
17:55 70.3 °F 57.6 °F 29.91 in NE 2.0 mph 6.0 mph 64 % 0.00 in 294 W/m2
18:00 70.7 °F 57.9 °F 29.91 in NE 1.0 mph 6.0 mph 64 % 0.00 in 306 W/m2
18:05 70.7 °F 57.5 °F 29.91 in NE 2.0 mph 6.0 mph 63 % 0.00 in 376 W/m2
18:10 70.5 °F 57.8 °F 29.91 in NE 2.0 mph 6.0 mph 64 % 0.00 in 332 W/m2
18:15 70.5 °F 57.3 °F 29.91 in NE 2.0 mph 6.0 mph 63 % 0.00 in 149 W/m2
18:20 70.5 °F 57.8 °F 29.91 in NE 2.0 mph 6.0 mph 64 % 0.00 in 137 W/m2
18:25 70.5 °F 57.3 °F 29.91 in NE 1.0 mph 5.0 mph 63 % 0.00 in 116 W/m2
18:30 70.3 °F 57.6 °F 29.91 in Calm   4.0 mph 64 % 0.00 in 95 W/m2
18:35 70.2 °F 57.8 °F 29.91 in Calm   4.0 mph 65 % 0.00 in 121 W/m2
18:40 69.8 °F 57.5 °F 29.91 in NE 1.0 mph 4.0 mph 65 % 0.00 in 183 W/m2
18:45 69.8 °F 57.5 °F 29.91 in Calm   4.0 mph 65 % 0.00 in 134 W/m2
18:50 70.0 °F 57.7 °F 29.90 in Calm   2.0 mph 65 % 0.00 in 100 W/m2
18:55 70.0 °F 58.1 °F 29.90 in NE 1.0 mph 3.0 mph 66 % 0.00 in 116 W/m2
19:00 70.0 °F 58.1 °F 29.90 in NE 1.0 mph 5.0 mph 66 % 0.00 in 218 W/m2
19:05 70.0 °F 57.7 °F 29.90 in NE 2.0 mph 5.0 mph 65 % 0.00 in 162 W/m2
19:10 69.8 °F 57.5 °F 29.90 in NE 1.0 mph 5.0 mph 65 % 0.00 in 116 W/m2
19:15 69.8 °F 57.9 °F 29.90 in ENE 1.0 mph 5.0 mph 66 % 0.00 in 91 W/m2
19:20 69.6 °F 57.3 °F 29.90 in Calm   2.0 mph 65 % 0.00 in 67 W/m2
19:25 69.4 °F 57.6 °F 29.90 in ENE 1.0 mph 3.0 mph 66 % 0.00 in 54 W/m2
19:30 69.3 °F 57.0 °F 29.89 in East 1.0 mph 6.0 mph 65 % 0.00 in 42 W/m2
19:36 69.1 °F 57.2 °F 29.89 in ESE 2.0 mph 6.0 mph 66 % 0.00 in 44 W/m2
19:37 69.1 °F 57.2 °F 29.89 in ESE 2.0 mph 6.0 mph 66 % 0.00 in 44 W/m2
19:42 68.9 °F 57.1 °F 29.89 in ESE 2.0 mph 6.0 mph 66 % 0.00 in 47 W/m2
19:47 68.7 °F 56.9 °F 29.89 in ESE 1.0 mph 6.0 mph 66 % 0.00 in 56 W/m2
19:49 68.5 °F 56.3 °F 29.89 in ESE 2.0 mph 6.0 mph 65 % 0.00 in 63 W/m2
19:54 68.5 °F 57.1 °F 29.89 in ESE 2.0 mph 5.0 mph 67 % 0.00 in 51 W/m2
19:59 68.5 °F 57.1 °F 29.89 in ESE 1.0 mph 4.0 mph 67 % 0.00 in 53 W/m2
20:04 68.4 °F 57.0 °F 29.88 in ESE 2.0 mph 5.0 mph 67 % 0.00 in 37 W/m2
20:09 68.2 °F 56.8 °F 29.89 in East 1.0 mph 5.0 mph 67 % 0.00 in 44 W/m2
20:14 68.2 °F 57.6 °F 29.88 in Calm   4.0 mph 69 % 0.00 in 49 W/m2
20:19 68.2 °F 57.6 °F 29.88 in ESE 1.0 mph 4.0 mph 69 % 0.00 in 51 W/m2
20:24 68.0 °F 56.6 °F 29.88 in ESE 3.0 mph 6.0 mph 67 % 0.00 in 35 W/m2
20:29 67.8 °F 56.5 °F 29.88 in East 3.0 mph 6.0 mph 67 % 0.00 in 25 W/m2
20:33 67.6 °F 56.7 °F 29.88 in ESE 3.0 mph 7.0 mph 68 % 0.00 in 18 W/m2
20:38 67.5 °F 56.5 °F 29.88 in ESE 2.0 mph 7.0 mph 68 % 0.00 in 18 W/m2
20:43 67.5 °F 56.5 °F 29.88 in ESE 3.0 mph 10.0 mph 68 % 0.00 in 14 W/m2
20:48 67.3 °F 55.9 °F 29.88 in SE 4.0 mph 10.0 mph 67 % 0.00 in 9 W/m2
20:53 67.1 °F 55.8 °F 29.88 in SE 5.0 mph 8.0 mph 67 % 0.00 in 7 W/m2
20:58 66.9 °F 55.6 °F 29.88 in SE 4.0 mph 10.0 mph 67 % 0.00 in 5 W/m2
21:03 66.7 °F 55.4 °F 29.89 in SE 4.0 mph 10.0 mph 67 % 0.00 in 0 W/m2
21:08 66.6 °F 55.3 °F 29.89 in SE 5.0 mph 8.0 mph 67 % 0.00 in 0 W/m2
21:13 66.4 °F 56.3 °F 29.89 in ESE 5.0 mph 11.0 mph 70 % 0.00 in 0 W/m2
21:18 65.8 °F 56.6 °F 29.89 in ESE 6.0 mph 11.0 mph 72 % 0.00 in 0 W/m2
21:23 65.3 °F 56.8 °F 29.89 in ESE 5.0 mph 11.0 mph 74 % 0.00 in 0 W/m2
21:28 64.9 °F 56.8 °F 29.89 in ESE 4.0 mph 9.0 mph 75 % 0.00 in 0 W/m2
21:33 64.6 °F 57.2 °F 29.89 in ESE 5.0 mph 9.0 mph 77 % 0.00 in 0 W/m2
21:38 64.0 °F 57.0 °F 29.89 in ESE 6.0 mph 11.0 mph 78 % 0.00 in 0 W/m2
21:43 63.9 °F 57.2 °F 29.89 in ESE 7.0 mph 11.0 mph 79 % 0.00 in 0 W/m2
21:48 63.5 °F 56.9 °F 29.89 in ESE 6.0 mph 11.0 mph 79 % 0.00 in 0 W/m2
21:53 63.1 °F 56.9 °F 29.89 in ESE 7.0 mph 10.0 mph 80 % 0.00 in 0 W/m2
21:58 62.8 °F 56.9 °F 29.89 in ESE 7.0 mph 11.0 mph 81 % 0.00 in 0 W/m2
22:03 62.6 °F 57.0 °F 29.89 in ESE 7.0 mph 11.0 mph 82 % 0.00 in 0 W/m2
22:08 62.4 °F 56.9 °F 29.89 in ESE 6.0 mph 11.0 mph 82 % 0.00 in 0 W/m2
22:13 62.2 °F 56.7 °F 29.89 in ESE 6.0 mph 11.0 mph 82 % 0.00 in 0 W/m2
22:18 62.1 °F 56.8 °F 29.89 in ESE 5.0 mph 9.0 mph 83 % 0.00 in 0 W/m2
22:23 62.1 °F 56.8 °F 29.89 in ESE 4.0 mph 9.0 mph 83 % 0.00 in 0 W/m2
22:28 61.9 °F 56.7 °F 29.89 in ESE 5.0 mph 10.0 mph 83 % 0.00 in 0 W/m2
22:33 61.5 °F 56.6 °F 29.89 in ESE 6.0 mph 10.0 mph 84 % 0.00 in 0 W/m2
22:38 61.3 °F 56.5 °F 29.89 in ESE 6.0 mph 10.0 mph 84 % 0.00 in 0 W/m2
22:43 61.2 °F 56.6 °F 29.89 in ESE 5.0 mph 9.0 mph 85 % 0.00 in 0 W/m2
22:48 60.8 °F 56.3 °F 29.88 in ESE 5.0 mph 8.0 mph 85 % 0.00 in 0 W/m2
22:53 60.6 °F 56.4 °F 29.88 in ESE 4.0 mph 8.0 mph 86 % 0.00 in 0 W/m2
22:58 60.4 °F 56.2 °F 29.88 in East 3.0 mph 6.0 mph 86 % 0.00 in 0 W/m2
23:04 60.3 °F 56.4 °F 29.88 in East 2.0 mph 6.0 mph 87 % 0.00 in 0 W/m2
23:09 60.1 °F 56.2 °F 29.89 in East 2.0 mph 5.0 mph 87 % 0.00 in 0 W/m2
23:14 60.1 °F 56.2 °F 29.88 in ESE 3.0 mph 6.0 mph 87 % 0.00 in 0 W/m2
23:19 59.9 °F 56.0 °F 29.88 in ESE 3.0 mph 7.0 mph 87 % 0.00 in 0 W/m2
23:24 59.7 °F 56.2 °F 29.88 in SE 4.0 mph 8.0 mph 88 % 0.00 in 0 W/m2
23:29 59.7 °F 56.2 °F 29.88 in SE 4.0 mph 8.0 mph 88 % 0.00 in 0 W/m2
23:34 59.5 °F 56.0 °F 29.88 in SSE 3.0 mph 8.0 mph 88 % 0.00 in 0 W/m2
23:39 59.5 °F 56.0 °F 29.88 in SSE 3.0 mph 9.0 mph 88 % 0.00 in 0 W/m2
23:44 59.4 °F 55.8 °F 29.87 in SE 5.0 mph 11.0 mph 88 % 0.00 in 0 W/m2
23:49 59.2 °F 55.6 °F 29.87 in SE 5.0 mph 11.0 mph 88 % 0.00 in 0 W/m2
23:54 59.0 °F 55.8 °F 29.87 in SE 5.0 mph 9.0 mph 89 % 0.00 in 0 W/m2
23:59 58.8 °F 55.6 °F 29.87 in SE 5.0 mph 9.0 mph 89 % 0.00 in 0 W/m2
Delerius-Weather
Compliments of Weather Underground - 2.25 mb

Data updates at regular intervals.